createdAt,value
2018-07-09T00:01:22.738Z,97910.38
2018-07-09T00:03:50.760Z,97903.19
2018-07-09T00:06:18.843Z,97907.92
2018-07-09T00:08:47.232Z,97903.88
2018-07-09T00:11:15.244Z,97905.64
2018-07-09T00:13:43.274Z,97900.91
2018-07-09T00:16:11.316Z,97896.45
2018-07-09T00:18:39.288Z,97890.24
2018-07-09T00:21:07.709Z,97888.48
2018-07-09T00:23:35.769Z,97889.67
2018-07-09T00:26:03.810Z,97884.42
2018-07-09T00:28:32.032Z,97886.98
2018-07-09T00:31:00.204Z,97891.24
2018-07-09T00:33:28.274Z,97896.30
2018-07-09T00:35:56.318Z,97893.92
2018-07-09T00:38:25.482Z,97898.55
2018-07-09T00:40:53.574Z,97887.78
2018-07-09T00:43:21.723Z,97885.53
2018-07-09T00:45:49.823Z,97889.19
2018-07-09T00:48:18.778Z,97884.13
2018-07-09T00:50:46.970Z,97886.50
2018-07-09T00:53:15.230Z,97887.22
2018-07-09T00:55:43.717Z,97884.33
2018-07-09T00:58:11.773Z,97885.22
2018-07-09T01:00:39.973Z,97885.02
2018-07-09T01:03:08.061Z,97885.50
2018-07-09T01:05:36.117Z,97877.64
2018-07-09T01:08:04.125Z,97883.05
2018-07-09T01:10:32.275Z,97881.06
2018-07-09T01:13:00.262Z,97885.52
2018-07-09T01:15:28.365Z,97880.84
2018-07-09T01:17:56.375Z,97885.55
2018-07-09T01:20:24.555Z,97882.51
2018-07-09T01:22:53.029Z,97884.95
2018-07-09T01:25:21.070Z,97886.92
2018-07-09T01:27:49.216Z,97889.08
2018-07-09T01:30:17.328Z,97889.20
2018-07-09T01:32:45.406Z,97887.29
2018-07-09T01:35:13.932Z,97893.25
2018-07-09T01:37:42.603Z,97890.00
2018-07-09T01:40:10.939Z,97898.07
2018-07-09T01:42:39.314Z,97893.88
2018-07-09T01:45:07.380Z,97888.54
2018-07-09T01:47:35.465Z,97897.95
2018-07-09T01:50:03.633Z,97905.47
2018-07-09T01:52:31.792Z,97900.56
2018-07-09T01:55:00.242Z,97898.27
2018-07-09T01:57:28.180Z,97896.30
2018-07-09T01:59:56.397Z,97899.08
2018-07-09T02:02:24.709Z,97898.07
2018-07-09T02:04:52.724Z,97899.77
2018-07-09T02:07:20.782Z,97904.67
2018-07-09T02:09:49.968Z,97900.48
2018-07-09T02:12:18.052Z,97906.19
2018-07-09T02:14:46.052Z,97904.13
2018-07-09T02:17:14.057Z,97901.92
2018-07-09T02:19:42.164Z,97909.48
2018-07-09T02:22:10.279Z,97904.19
2018-07-09T02:24:38.296Z,97898.03
2018-07-09T02:27:06.383Z,97892.14
2018-07-09T02:29:34.487Z,97887.98
2018-07-09T02:32:02.569Z,97900.05
2018-07-09T02:34:30.609Z,97898.64
2018-07-09T02:36:58.811Z,97896.69
2018-07-09T02:39:26.826Z,97901.62
2018-07-09T02:41:55.036Z,97897.70
2018-07-09T02:44:23.000Z,97897.19
2018-07-09T02:46:50.967Z,97891.17
2018-07-09T02:49:19.367Z,97897.56
2018-07-09T02:51:47.473Z,97893.25
2018-07-09T02:54:15.540Z,97899.55
2018-07-09T02:56:43.591Z,97903.11
2018-07-09T02:59:11.611Z,97899.08
2018-07-09T03:01:39.619Z,97895.63
2018-07-09T03:04:07.720Z,97894.91
2018-07-09T03:06:35.726Z,97896.28
2018-07-09T03:09:04.626Z,97901.14
2018-07-09T03:11:32.651Z,97896.20
2018-07-09T03:14:01.674Z,97907.26
2018-07-09T03:16:29.709Z,97899.88
2018-07-09T03:18:57.823Z,97900.29
2018-07-09T03:21:26.085Z,97909.27
2018-07-09T03:23:54.116Z,97904.83
2018-07-09T03:26:22.244Z,97903.67
2018-07-09T03:28:50.294Z,97904.97
2018-07-09T03:31:18.379Z,97903.96
2018-07-09T03:33:46.442Z,97903.30
2018-07-09T03:36:15.463Z,97905.17
2018-07-09T03:38:43.515Z,97908.09
2018-07-09T03:41:11.528Z,97908.50
2018-07-09T03:43:39.516Z,97911.60
2018-07-09T03:46:07.719Z,97911.48
2018-07-09T03:48:35.810Z,97909.77
2018-07-09T03:51:03.790Z,97911.69
2018-07-09T03:53:31.996Z,97915.86
2018-07-09T03:56:00.035Z,97919.80
2018-07-09T03:58:28.047Z,97920.39
2018-07-09T04:00:56.109Z,97922.75
2018-07-09T04:03:24.223Z,97921.19
2018-07-09T04:05:52.201Z,97927.08
2018-07-09T04:08:20.578Z,97929.09
2018-07-09T04:10:48.584Z,97926.59
2018-07-09T04:13:16.623Z,97931.14
2018-07-09T04:15:44.652Z,97934.23
2018-07-09T04:18:12.672Z,97936.35
2018-07-09T04:20:40.665Z,97923.88
2018-07-09T04:23:08.989Z,97927.73
2018-07-09T04:25:37.033Z,97931.59
2018-07-09T04:28:05.130Z,97932.79
2018-07-09T04:30:33.221Z,97937.23
2018-07-09T04:33:01.269Z,97937.23
2018-07-09T04:35:29.313Z,97932.94
2018-07-09T04:37:57.465Z,97937.44
2018-07-09T04:40:25.360Z,97929.63
2018-07-09T04:42:53.356Z,97935.36
2018-07-09T04:45:21.437Z,97941.13
2018-07-09T04:47:49.420Z,97936.58
2018-07-09T04:50:17.610Z,97942.48
2018-07-09T04:52:45.633Z,97942.94
2018-07-09T04:55:13.692Z,97944.22
2018-07-09T04:57:41.724Z,97944.30
2018-07-09T05:00:09.747Z,97938.98
2018-07-09T05:02:37.748Z,97940.31
2018-07-09T05:05:05.803Z,97940.92
2018-07-09T05:07:33.801Z,97933.92
2018-07-09T05:10:01.808Z,97928.20
2018-07-09T05:12:29.833Z,97930.89
2018-07-09T05:14:58.242Z,97932.91
2018-07-09T05:17:26.483Z,97930.34
2018-07-09T05:19:54.504Z,97932.64
2018-07-09T05:22:22.477Z,97940.14
2018-07-09T05:24:50.584Z,97939.61
2018-07-09T05:27:18.632Z,97940.91
2018-07-09T05:29:46.638Z,97948.41
2018-07-09T05:32:14.654Z,97945.22
2018-07-09T05:34:42.676Z,97948.27
2018-07-09T05:37:10.672Z,97943.69
2018-07-09T05:39:39.261Z,97945.34
2018-07-09T05:42:07.394Z,97941.11
2018-07-09T05:44:36.123Z,97940.55
2018-07-09T05:47:04.358Z,97942.72
2018-07-09T05:49:32.594Z,97947.58
2018-07-09T05:52:00.719Z,97955.28
2018-07-09T05:54:28.780Z,97953.48
2018-07-09T05:56:56.822Z,97957.65
2018-07-09T05:59:24.872Z,97956.56
2018-07-09T06:01:52.936Z,97955.97
2018-07-09T06:04:21.026Z,97959.14
2018-07-09T06:06:49.101Z,97954.00
2018-07-09T06:09:17.118Z,97953.00
2018-07-09T06:11:45.118Z,97950.34
2018-07-09T06:14:13.122Z,97947.19
2018-07-09T06:16:41.120Z,97949.72
2018-07-09T06:19:09.512Z,97953.00
2018-07-09T06:21:37.629Z,97955.30
2018-07-09T06:24:05.946Z,97951.32
2018-07-09T06:26:35.856Z,97954.92
2018-07-09T06:29:03.935Z,97949.84
2018-07-09T06:31:31.953Z,97948.38
2018-07-09T06:34:01.644Z,97939.14
2018-07-09T06:36:29.880Z,97950.06
2018-07-09T06:38:57.941Z,97942.23
2018-07-09T06:41:26.615Z,97943.77
2018-07-09T06:43:55.053Z,97950.55
2018-07-09T06:46:23.074Z,97947.81
2018-07-09T06:48:51.245Z,97949.76
2018-07-09T06:51:19.318Z,97957.32
2018-07-09T06:53:47.406Z,97956.31
2018-07-09T06:56:15.384Z,97958.14
2018-07-09T06:58:43.426Z,97954.30
2018-07-09T07:01:11.490Z,97948.34
2018-07-09T07:03:39.566Z,97957.34
2018-07-09T07:06:07.604Z,97952.89
2018-07-09T07:08:35.943Z,97954.00
2018-07-09T07:11:04.193Z,97948.28
2018-07-09T07:13:32.261Z,97949.61
2018-07-09T07:16:00.646Z,97942.61
2018-07-09T07:18:28.668Z,97944.42
2018-07-09T07:20:56.782Z,97947.78
2018-07-09T07:23:24.786Z,97954.25
2018-07-09T07:25:52.828Z,97954.54
2018-07-09T07:28:21.612Z,97953.48
2018-07-09T07:30:49.624Z,97954.84
2018-07-09T07:33:17.674Z,97953.23
2018-07-09T07:35:45.920Z,97959.41
2018-07-09T07:38:13.933Z,97947.57
2018-07-09T07:40:42.109Z,97955.66
2018-07-09T07:43:10.177Z,97954.93
2018-07-09T07:45:38.258Z,97952.53
2018-07-09T07:48:06.344Z,97949.52
2018-07-09T07:50:34.502Z,97949.45
2018-07-09T07:53:02.614Z,97950.73
2018-07-09T07:55:30.677Z,97957.42
2018-07-09T07:57:58.694Z,97948.43
2018-07-09T08:00:26.686Z,97957.63
2018-07-09T08:02:54.774Z,97956.09
2018-07-09T08:05:22.832Z,97956.19
2018-07-09T08:07:50.831Z,97956.42
2018-07-09T08:10:19.180Z,97972.89
2018-07-09T08:13:27.166Z,97974.76
2018-07-09T08:15:15.456Z,97972.16
2018-07-09T08:17:43.548Z,97986.20
2018-07-09T08:20:11.545Z,97975.05
2018-07-09T08:22:39.589Z,97977.90
2018-07-09T08:25:07.845Z,97979.77
2018-07-09T08:27:35.870Z,97980.81
2018-07-09T08:30:04.099Z,97976.98
2018-07-09T08:32:32.267Z,97976.14
2018-07-09T08:35:00.328Z,97972.38
2018-07-09T08:37:28.472Z,97972.95
2018-07-09T08:39:56.697Z,97971.33
2018-07-09T08:42:25.432Z,97965.63
2018-07-09T08:44:53.546Z,97965.84
2018-07-09T08:47:21.707Z,97963.55
2018-07-09T08:49:49.796Z,97956.83
2018-07-09T08:52:17.855Z,97959.20
2018-07-09T08:54:45.865Z,97962.53
2018-07-09T08:57:13.930Z,97952.93
2018-07-09T08:59:41.972Z,97959.75
2018-07-09T09:02:10.304Z,97956.28
2018-07-09T09:04:38.305Z,97956.02
2018-07-09T09:07:06.304Z,97952.39
2018-07-09T09:09:34.515Z,97953.47
2018-07-09T09:12:02.570Z,97960.25
2018-07-09T09:14:30.577Z,97963.67
2018-07-09T09:16:58.659Z,97951.59
2018-07-09T09:19:26.722Z,97958.37
2018-07-09T09:21:54.852Z,97956.70
2018-07-09T09:24:22.898Z,97948.44
2018-07-09T09:26:50.964Z,97958.67
2018-07-09T09:29:18.988Z,97973.23
2018-07-09T09:31:47.064Z,97970.39
2018-07-09T09:34:15.119Z,97969.22
2018-07-09T09:36:43.230Z,97969.73
2018-07-09T09:39:11.276Z,97961.63
2018-07-09T09:41:39.397Z,97962.83
2018-07-09T09:44:07.435Z,97967.67
2018-07-09T09:46:36.679Z,97974.46
2018-07-09T09:49:05.248Z,97978.34
2018-07-09T09:51:33.284Z,97981.58
2018-07-09T09:54:02.269Z,97987.06
2018-07-09T09:56:30.382Z,97986.28
2018-07-09T09:58:58.417Z,97988.83
2018-07-09T10:01:26.457Z,97982.25
2018-07-09T10:03:54.465Z,97986.28
2018-07-09T10:06:22.485Z,97990.52
2018-07-09T10:08:50.861Z,97992.66
2018-07-09T10:11:18.884Z,98004.28
2018-07-09T10:13:47.023Z,97995.72
2018-07-09T10:16:15.109Z,97981.37
2018-07-09T10:18:43.191Z,97977.91
2018-07-09T10:21:11.485Z,97976.02
2018-07-09T10:23:39.596Z,97975.65
2018-07-09T10:26:07.666Z,97977.66
2018-07-09T10:28:36.392Z,97976.05
2018-07-09T10:31:04.862Z,97975.66
2018-07-09T10:33:33.028Z,97971.52
2018-07-09T10:36:01.213Z,97974.13
2018-07-09T10:38:29.957Z,97974.36
2018-07-09T10:40:57.977Z,97976.61
2018-07-09T10:43:26.090Z,97969.19
2018-07-09T10:45:54.140Z,97968.36
2018-07-09T10:48:22.284Z,97974.00
2018-07-09T10:50:50.364Z,97969.49
2018-07-09T10:53:18.447Z,97967.89
2018-07-09T10:55:46.505Z,97961.73
2018-07-09T10:58:14.609Z,97970.85
2018-07-09T11:00:42.700Z,97972.33
2018-07-09T11:03:10.721Z,97971.45
2018-07-09T11:05:38.913Z,97971.48
2018-07-09T11:08:07.004Z,97964.91
2018-07-09T11:10:34.997Z,97955.19
2018-07-09T11:13:03.053Z,97963.31
2018-07-09T11:15:32.081Z,97958.55
2018-07-09T11:18:00.580Z,97951.88
2018-07-09T11:20:29.086Z,97949.20
2018-07-09T11:22:57.130Z,97938.98
2018-07-09T11:25:25.249Z,97943.16
2018-07-09T11:27:53.218Z,97942.13
2018-07-09T11:30:21.291Z,97937.91
2018-07-09T11:32:49.346Z,97927.86
2018-07-09T11:35:19.428Z,97926.17
2018-07-09T11:37:47.808Z,97931.33
2018-07-09T11:40:16.127Z,97930.30
2018-07-09T11:42:44.183Z,97924.69
2018-07-09T11:45:12.366Z,97925.68
2018-07-09T11:47:40.611Z,97926.61
2018-07-09T11:50:08.906Z,97921.06
2018-07-09T11:52:37.037Z,97926.27
2018-07-09T11:55:05.172Z,97917.19
2018-07-09T11:57:33.581Z,97917.63
2018-07-09T12:00:01.830Z,97912.37
2018-07-09T12:02:29.943Z,97910.16
2018-07-09T12:04:58.069Z,97910.62
2018-07-09T12:07:26.616Z,97910.19
2018-07-09T12:09:54.875Z,97910.69
2018-07-09T12:12:23.005Z,97909.59
2018-07-09T12:14:51.082Z,97906.95
2018-07-09T12:17:19.221Z,97907.86
2018-07-09T12:19:47.347Z,97906.60
2018-07-09T12:22:15.524Z,97906.91
2018-07-09T12:24:43.562Z,97902.05
2018-07-09T12:27:11.655Z,97904.95
2018-07-09T12:29:39.728Z,97901.39
2018-07-09T12:32:07.829Z,97900.73
2018-07-09T12:34:35.962Z,97895.73
2018-07-09T12:37:04.078Z,97901.06
2018-07-09T12:39:32.118Z,97897.84
2018-07-09T12:42:00.175Z,97896.03
2018-07-09T12:44:28.246Z,97898.46
2018-07-09T12:46:56.358Z,97898.55
2018-07-09T12:49:24.487Z,97888.86
2018-07-09T12:51:52.535Z,97886.27
2018-07-09T12:54:20.619Z,97886.36
2018-07-09T12:56:48.703Z,97886.36
2018-07-09T12:59:17.126Z,97884.09
2018-07-09T13:01:45.310Z,97872.45
2018-07-09T13:04:13.473Z,97872.73
2018-07-09T13:06:42.301Z,97868.45
2018-07-09T13:09:10.361Z,97870.19
2018-07-09T13:11:38.612Z,97872.44
2018-07-09T13:14:06.709Z,97870.28
2018-07-09T13:16:34.796Z,97867.73
2018-07-09T13:19:02.983Z,97863.53
2018-07-09T13:21:30.992Z,97864.54
2018-07-09T13:23:59.045Z,97864.12
2018-07-09T13:26:27.183Z,97869.19
2018-07-09T13:28:55.321Z,97863.24
2018-07-09T13:31:23.439Z,97865.84
2018-07-09T13:33:51.652Z,97865.50
2018-07-09T13:36:19.778Z,97868.31
2018-07-09T13:38:48.053Z,97863.80
2018-07-09T13:41:16.234Z,97864.67
2018-07-09T13:43:44.345Z,97863.08
2018-07-09T13:46:12.471Z,97857.44
2018-07-09T13:48:41.226Z,97859.11
2018-07-09T13:51:09.447Z,97860.76
2018-07-09T13:53:37.597Z,97864.32
2018-07-09T13:56:05.949Z,97871.59
2018-07-09T13:58:34.052Z,97866.07
2018-07-09T14:01:02.081Z,97870.05
2018-07-09T14:03:30.156Z,97868.98
2018-07-09T14:06:04.687Z,97867.40
2018-07-09T14:08:33.054Z,97865.30
2018-07-09T14:11:01.188Z,97862.25
2018-07-09T14:13:29.192Z,97857.58
2018-07-09T14:15:57.264Z,97864.50
2018-07-09T14:18:25.358Z,97859.80
2018-07-09T14:20:53.471Z,97865.13
2018-07-09T14:23:21.497Z,97865.84
2018-07-09T14:25:49.518Z,97863.47
2018-07-09T14:28:17.666Z,97863.43
2018-07-09T14:30:45.739Z,97865.00
2018-07-09T14:33:13.897Z,97867.20
2018-07-09T14:35:42.015Z,97866.41
2018-07-09T14:38:10.079Z,97866.59
2018-07-09T14:40:38.131Z,97867.89
2018-07-09T14:43:06.304Z,97866.61
2018-07-09T14:45:34.369Z,97873.81
2018-07-09T14:48:02.523Z,97863.64
2018-07-09T14:50:30.754Z,97872.83
2018-07-09T14:52:58.805Z,97861.81
2018-07-09T14:55:27.484Z,97871.95
2018-07-09T14:57:55.563Z,97871.44
2018-07-09T15:00:23.639Z,97868.38
2018-07-09T15:02:51.633Z,97862.60
2018-07-09T15:05:21.024Z,97856.12
2018-07-09T15:07:49.050Z,97862.20
2018-07-09T15:10:17.053Z,97865.76
2018-07-09T15:12:45.138Z,97863.12
2018-07-09T15:15:13.211Z,97865.84
2018-07-09T15:17:41.688Z,97861.52
2018-07-09T15:20:09.720Z,97854.35
2018-07-09T15:22:37.706Z,97848.79
2018-07-09T15:25:06.801Z,97847.23
2018-07-09T15:27:35.709Z,97854.86
2018-07-09T15:30:04.007Z,97852.78
2018-07-09T15:32:32.444Z,97853.88
2018-07-09T15:35:00.557Z,97852.48
2018-07-09T15:37:29.001Z,97847.89
2018-07-09T15:39:57.060Z,97849.13
2018-07-09T15:42:25.721Z,97846.64
2018-07-09T15:44:53.789Z,97851.77
2018-07-09T15:47:21.814Z,97852.14
2018-07-09T15:49:49.874Z,97857.56
2018-07-09T15:52:17.987Z,97858.72
2018-07-09T15:54:46.000Z,97856.06
2018-07-09T15:57:14.032Z,97853.03
2018-07-09T15:59:42.191Z,97857.52
2018-07-09T16:02:11.250Z,97857.35
2018-07-09T16:04:39.304Z,97848.78
2018-07-09T16:07:07.384Z,97854.36
2018-07-09T16:09:35.450Z,97855.13
2018-07-09T16:12:03.890Z,97859.51
2018-07-09T16:14:31.901Z,97861.27
2018-07-09T16:16:59.951Z,97870.12
2018-07-09T16:19:28.058Z,97873.56
2018-07-09T16:21:56.869Z,97868.97
2018-07-09T16:24:24.912Z,97876.66
2018-07-09T16:26:52.961Z,97878.22
2018-07-09T16:29:21.221Z,97871.81
2018-07-09T16:31:49.228Z,97875.09
2018-07-09T16:34:17.242Z,97872.83
2018-07-09T16:36:45.674Z,97885.68
2018-07-09T16:39:13.769Z,97894.83
2018-07-09T16:41:41.904Z,97895.42
2018-07-09T16:44:10.025Z,97894.73
2018-07-09T16:46:38.438Z,97897.63
2018-07-09T16:49:06.637Z,97907.51
2018-07-09T16:51:34.713Z,97896.14
2018-07-09T16:54:02.917Z,97895.20
2018-07-09T16:56:30.994Z,97890.23
2018-07-09T16:58:59.100Z,97884.48
2018-07-09T17:01:27.289Z,97896.09
2018-07-09T17:03:55.357Z,97905.25
2018-07-09T17:06:23.471Z,97898.17
2018-07-09T17:08:51.561Z,97895.92
2018-07-09T17:11:19.713Z,97902.55
2018-07-09T17:13:48.238Z,97900.62
2018-07-09T17:16:16.344Z,97899.86
2018-07-09T17:18:44.713Z,97902.30
2018-07-09T17:21:13.017Z,97896.00
2018-07-09T17:23:41.287Z,97890.83
2018-07-09T17:26:10.300Z,97898.20
2018-07-09T17:28:38.969Z,97900.37
2018-07-09T17:31:06.992Z,97908.78
2018-07-09T17:33:35.326Z,97924.45
2018-07-09T17:36:03.458Z,97909.52
2018-07-09T17:38:31.641Z,97908.79
2018-07-09T17:40:59.901Z,97917.36
2018-07-09T17:43:27.989Z,97913.64
2018-07-09T17:45:56.017Z,97916.26
2018-07-09T17:48:24.081Z,97918.36
2018-07-09T17:50:52.209Z,97927.87
2018-07-09T17:53:20.506Z,97926.92
2018-07-09T17:55:48.632Z,97933.84
2018-07-09T17:58:16.729Z,97939.98
2018-07-09T18:00:44.823Z,97937.23
2018-07-09T18:03:12.810Z,97939.09
2018-07-09T18:05:40.952Z,97940.80
2018-07-09T18:08:09.164Z,97937.41
2018-07-09T18:10:37.309Z,97949.66
2018-07-09T18:13:05.478Z,97944.00
2018-07-09T18:15:33.521Z,97940.78
2018-07-09T18:18:01.612Z,97941.93
2018-07-09T18:20:29.721Z,97934.80
2018-07-09T18:22:57.757Z,97934.17
2018-07-09T18:25:26.023Z,97943.84
2018-07-09T18:27:54.632Z,97949.49
2018-07-09T18:30:22.654Z,97941.28
2018-07-09T18:32:50.829Z,97946.95
2018-07-09T18:35:18.930Z,97947.14
2018-07-09T18:37:47.072Z,97960.88
2018-07-09T18:40:15.227Z,97962.40
2018-07-09T18:42:43.332Z,97961.44
2018-07-09T18:45:11.519Z,97948.63
2018-07-09T18:47:39.629Z,97951.20
2018-07-09T18:50:07.889Z,97973.70
2018-07-09T18:52:37.202Z,97962.07
2018-07-09T18:55:06.629Z,97967.34
2018-07-09T18:57:34.781Z,97967.72
2018-07-09T19:00:03.013Z,97973.36
2018-07-09T19:02:31.091Z,97987.56
2018-07-09T19:05:00.716Z,97985.30
2018-07-09T19:07:29.699Z,97985.47
2018-07-09T19:09:58.057Z,97989.99
2018-07-09T19:12:32.082Z,97994.69
2018-07-09T19:15:00.551Z,97982.39
2018-07-09T19:18:10.197Z,97985.31
2018-07-09T19:21:19.289Z,97989.66
2018-07-09T19:23:45.999Z,97996.36
2018-07-09T19:26:12.568Z,97990.42
2018-07-09T19:28:39.204Z,98008.88
2018-07-09T19:31:05.902Z,97999.28
2018-07-09T19:33:32.438Z,97999.94
2018-07-09T19:35:59.442Z,97986.53
2018-07-09T19:38:26.120Z,98004.53
2018-07-09T19:40:52.751Z,97995.68
2018-07-09T19:43:19.494Z,97988.03
2018-07-09T19:45:46.191Z,97996.66
2018-07-09T19:48:13.310Z,98002.21
2018-07-09T19:50:39.961Z,98004.59
2018-07-09T19:53:06.809Z,98004.14
2018-07-09T19:55:33.439Z,98010.98
2018-07-09T19:58:00.037Z,98021.02
2018-07-09T20:00:27.044Z,98034.19
2018-07-09T20:02:54.254Z,98045.88
2018-07-09T20:05:20.861Z,98056.45
2018-07-09T20:07:47.838Z,98061.59
2018-07-09T20:10:19.882Z,98072.08
2018-07-09T20:12:51.886Z,98067.63
2018-07-09T20:15:23.923Z,98062.80
2018-07-09T20:17:50.563Z,98057.94
2018-07-09T20:20:17.173Z,98061.24
2018-07-09T20:22:43.876Z,98066.17
2018-07-09T20:25:10.453Z,98078.13
2018-07-09T20:27:37.083Z,98077.92
2018-07-09T20:30:03.749Z,98066.34
2018-07-09T20:32:30.363Z,98066.84
2018-07-09T20:34:57.028Z,98076.42
2018-07-09T20:37:23.633Z,98085.27
2018-07-09T20:39:50.228Z,98097.63
2018-07-09T20:42:16.830Z,98104.26
2018-07-09T20:44:43.453Z,98099.59
2018-07-09T20:47:10.181Z,98096.14
2018-07-09T20:49:36.994Z,98095.51
2018-07-09T20:52:03.627Z,98095.51
2018-07-09T20:54:30.326Z,98103.05
2018-07-09T20:56:56.924Z,98097.99
2018-07-09T20:59:24.148Z,98098.20
2018-07-09T21:01:50.811Z,98110.70
2018-07-09T21:04:22.868Z,98115.77
2018-07-09T21:06:49.480Z,98125.90
2018-07-09T21:09:16.968Z,98134.28
2018-07-09T21:11:44.002Z,98128.14
2018-07-09T21:14:10.594Z,98123.55
2018-07-09T21:16:37.170Z,98122.08
2018-07-09T21:19:03.808Z,98108.29
2018-07-09T21:21:30.528Z,98096.14
2018-07-09T21:23:58.047Z,98086.36
2018-07-09T21:26:26.799Z,98070.47
2018-07-09T21:28:53.417Z,98058.03
2018-07-09T21:31:20.084Z,98037.02
2018-07-09T21:33:46.721Z,98036.23
2018-07-09T21:36:13.550Z,98061.98
2018-07-09T21:38:41.038Z,98075.02
2018-07-09T21:41:08.037Z,98081.25
2018-07-09T21:43:34.766Z,98071.66
2018-07-09T21:46:01.410Z,98056.91
2018-07-09T21:48:29.779Z,98054.83
2018-07-09T21:50:56.183Z,98052.84
2018-07-09T21:53:23.472Z,98039.12
2018-07-09T21:55:50.304Z,98039.66
2018-07-09T21:58:16.969Z,98021.41
2018-07-09T22:00:43.585Z,98020.86
2018-07-09T22:03:10.124Z,98012.31
2018-07-09T22:05:36.739Z,98016.27
2018-07-09T22:08:04.028Z,98016.27
2018-07-09T22:10:30.684Z,98022.54
2018-07-09T22:12:57.319Z,98036.70
2018-07-09T22:15:23.925Z,98041.02
2018-07-09T22:17:50.516Z,98042.87
2018-07-09T22:20:17.124Z,98032.21
2018-07-09T22:22:43.752Z,98039.11
2018-07-09T22:25:10.394Z,98037.59
2018-07-09T22:27:36.988Z,98043.00
2018-07-09T22:30:03.612Z,98048.13
2018-07-09T22:32:31.637Z,98043.45
2018-07-09T22:34:59.678Z,98039.33
2018-07-09T22:37:27.775Z,98037.03
2018-07-09T22:39:55.819Z,98032.21
2018-07-09T22:42:24.347Z,98029.75
2018-07-09T22:44:52.367Z,98035.96
2018-07-09T22:47:20.407Z,98048.22
2018-07-09T22:49:48.411Z,98051.36
2018-07-09T22:52:16.445Z,98045.17
2018-07-09T22:54:44.478Z,98027.53
2018-07-09T22:57:12.610Z,98027.53
2018-07-09T22:59:40.615Z,98038.73
2018-07-09T23:02:08.932Z,98043.11
2018-07-09T23:04:36.956Z,98038.25
2018-07-09T23:07:05.916Z,98038.65
2018-07-09T23:10:04.383Z,98042.90
2018-07-09T23:13:15.786Z,98051.06
2018-07-09T23:16:14.204Z,98050.39
2018-07-09T23:18:56.276Z,98052.79
2018-07-09T23:22:28.250Z,98048.14
2018-07-09T23:24:55.120Z,98041.61
2018-07-09T23:27:21.775Z,98040.39
2018-07-09T23:29:48.377Z,98028.56
2018-07-09T23:32:14.972Z,98025.69
2018-07-09T23:34:41.614Z,98028.40
2018-07-09T23:37:08.341Z,98034.83
2018-07-09T23:39:34.988Z,98029.48
2018-07-09T23:42:01.730Z,98024.53
2018-07-09T23:44:28.337Z,98027.59
2018-07-09T23:46:54.990Z,98032.04
2018-07-09T23:49:21.633Z,98032.36
2018-07-09T23:51:48.281Z,98029.64
2018-07-09T23:54:14.886Z,98029.45
2018-07-09T23:59:01.777Z,98023.92
